Reklama

Seznam meteostanic a jejich METAR

Vyhledat místa podle abecedy:
A B C D E F G H I J K L M N O P Q R S T U V W X Y Z

Filtrovat:

ID stanice:
a/nebo
Název místa (fulltext):
 
Místo (ID)Naposledy načteno 
Zadar (LDZD) 15.11.2018 12:00 UTC Zobrazit METAR
LDZD 151200Z VRB04KT CAVOK 18/03 Q1023 BECMG 06012KT
Zagreb (LDZA) 15.11.2018 12:00 UTC Zobrazit METAR
LDZA 151200Z 09003KT 030V150 CAVOK 12/04 Q1028 NOSIG
Zaragoza (LEZG) 15.11.2018 12:00 UTC Zobrazit METAR
LEZG 151200Z 10003KT 060V120 8000 FEW015 SCT020 16/13 Q1020
Zhezkazgan (UAKD) Zatím nenačteno  
Zurich (LSZH) 15.11.2018 11:50 UTC Zobrazit METAR
LSZH 151150Z VRB03KT 8000 OVC008 07/05 Q1026 NOSIG
Reklama

Počasí na Váš email

Emaily jsou bez reklamy a bez spamu



Odhlásit newsletter

Reklama


Lunární kalendář

  • 23.11.
  • 30.11.
  • 07.12.
  • 15.12.



Reklama


Reklama
Povinné ručení
Reklama



Reklama